sensor_id;sensor_type;location;lat;lon;timestamp;pressure;altitude;pressure_sealevel;temperature;humidity
59757;BME280;45631;51.962;5.974;2023-05-23T00:02:22;101634.44;;;15.03;100.00
59757;BME280;45631;51.962;5.974;2023-05-23T00:04:51;101638.03;;;15.02;100.00
59757;BME280;45631;51.962;5.974;2023-05-23T00:07:25;101632.97;;;14.99;100.00
59757;BME280;45631;51.962;5.974;2023-05-23T00:09:53;101630.31;;;14.99;100.00
59757;BME280;45631;51.962;5.974;2023-05-23T00:12:22;101620.91;;;14.95;100.00
59757;BME280;45631;51.962;5.974;2023-05-23T00:14:50;101627.97;;;14.94;100.00
59757;BME280;45631;51.962;5.974;2023-05-23T00:17:19;101625.53;;;15.04;100.00
59757;BME280;45631;51.962;5.974;2023-05-23T00:19:51;101622.38;;;14.99;100.00
59757;BME280;45631;51.962;5.974;2023-05-23T00:22:21;101632.22;;;14.97;100.00
59757;BME280;45631;51.962;5.974;2023-05-23T00:24:51;101631.72;;;14.92;100.00
59757;BME280;45631;51.962;5.974;2023-05-23T00:27:19;101627.25;;;14.92;100.00
59757;BME280;45631;51.962;5.974;2023-05-23T00:29:47;101630.44;;;14.97;100.00
59757;BME280;45631;51.962;5.974;2023-05-23T00:32:16;101629.06;;;14.92;100.00
59757;BME280;45631;51.962;5.974;2023-05-23T00:34:44;101633.09;;;14.84;100.00
59757;BME280;45631;51.962;5.974;2023-05-23T00:37:12;101637.31;;;14.87;100.00
59757;BME280;45631;51.962;5.974;2023-05-23T00:39:40;101636.59;;;14.85;100.00
59757;BME280;45631;51.962;5.974;2023-05-23T00:42:10;101635.13;;;14.81;100.00
59757;BME280;45631;51.962;5.974;2023-05-23T00:44:38;101640.41;;;14.81;100.00
59757;BME280;45631;51.962;5.974;2023-05-23T00:47:07;101636.78;;;14.82;100.00
59757;BME280;45631;51.962;5.974;2023-05-23T00:49:36;101643.56;;;14.86;100.00
59757;BME280;45631;51.962;5.974;2023-05-23T00:52:05;101644.97;;;14.79;100.00
59757;BME280;45631;51.962;5.974;2023-05-23T00:54:33;101647.19;;;14.85;100.00
59757;BME280;45631;51.962;5.974;2023-05-23T00:57:04;101655.34;;;14.82;100.00
59757;BME280;45631;51.962;5.974;2023-05-23T00:59:35;101649.00;;;14.72;100.00
59757;BME280;45631;51.962;5.974;2023-05-23T01:02:05;101654.81;;;14.64;100.00
59757;BME280;45631;51.962;5.974;2023-05-23T01:04:35;101655.84;;;14.61;100.00
59757;BME280;45631;51.962;5.974;2023-05-23T01:07:03;101653.94;;;14.50;100.00
59757;BME280;45631;51.962;5.974;2023-05-23T01:09:32;101649.81;;;14.46;100.00
59757;BME280;45631;51.962;5.974;2023-05-23T01:12:12;101652.28;;;14.49;100.00
59757;BME280;45631;51.962;5.974;2023-05-23T01:14:47;101657.88;;;14.45;100.00
59757;BME280;45631;51.962;5.974;2023-05-23T01:17:20;101650.38;;;14.39;100.00
59757;BME280;45631;51.962;5.974;2023-05-23T01:19:57;101665.47;;;14.36;100.00
59757;BME280;45631;51.962;5.974;2023-05-23T01:22:37;101662.28;;;14.31;100.00
59757;BME280;45631;51.962;5.974;2023-05-23T01:25:22;101677.66;;;14.39;100.00
59757;BME280;45631;51.962;5.974;2023-05-23T01:27:59;101676.28;;;14.33;100.00
59757;BME280;45631;51.962;5.974;2023-05-23T01:30:31;101673.19;;;14.40;100.00
59757;BME280;45631;51.962;5.974;2023-05-23T01:33:01;101678.31;;;14.43;100.00
59757;BME280;45631;51.962;5.974;2023-05-23T01:35:30;101675.53;;;14.31;100.00
59757;BME280;45631;51.962;5.974;2023-05-23T01:38:01;101674.38;;;14.35;100.00
59757;BME280;45631;51.962;5.974;2023-05-23T01:40:30;101668.44;;;14.32;100.00
59757;BME280;45631;51.962;5.974;2023-05-23T01:43:00;101661.69;;;14.28;100.00
59757;BME280;45631;51.962;5.974;2023-05-23T01:45:28;101661.47;;;14.31;100.00
59757;BME280;45631;51.962;5.974;2023-05-23T01:47:57;101663.72;;;14.37;100.00
59757;BME280;45631;51.962;5.974;2023-05-23T01:50:25;101668.88;;;14.39;100.00
59757;BME280;45631;51.962;5.974;2023-05-23T01:52:54;101669.28;;;14.32;100.00
59757;BME280;45631;51.962;5.974;2023-05-23T01:55:24;101675.31;;;14.22;100.00
59757;BME280;45631;51.962;5.974;2023-05-23T01:57:54;101670.97;;;14.20;100.00
59757;BME280;45631;51.962;5.974;2023-05-23T02:00:24;101667.38;;;14.22;100.00
59757;BME280;45631;51.962;5.974;2023-05-23T02:02:52;101676.34;;;14.19;100.00
59757;BME280;45631;51.962;5.974;2023-05-23T02:05:23;101689.06;;;14.14;100.00
59757;BME280;45631;51.962;5.974;2023-05-23T02:07:51;101687.97;;;14.03;100.00
59757;BME280;45631;51.962;5.974;2023-05-23T02:10:20;101690.13;;;14.11;100.00
59757;BME280;45631;51.962;5.974;2023-05-23T02:12:48;101694.16;;;14.17;100.00
59757;BME280;45631;51.962;5.974;2023-05-23T02:15:16;101696.13;;;14.13;100.00
59757;BME280;45631;51.962;5.974;2023-05-23T02:17:46;101696.03;;;14.15;100.00
59757;BME280;45631;51.962;5.974;2023-05-23T02:20:14;101698.06;;;14.11;100.00
59757;BME280;45631;51.962;5.974;2023-05-23T02:22:45;101694.59;;;14.24;100.00
59757;BME280;45631;51.962;5.974;2023-05-23T02:25:13;101697.41;;;14.08;100.00
59757;BME280;45631;51.962;5.974;2023-05-23T02:27:42;101701.09;;;14.05;100.00
59757;BME280;45631;51.962;5.974;2023-05-23T02:30:11;101698.75;;;14.00;100.00
59757;BME280;45631;51.962;5.974;2023-05-23T02:32:39;101700.97;;;14.07;100.00
59757;BME280;45631;51.962;5.974;2023-05-23T02:35:09;101705.13;;;14.11;100.00
59757;BME280;45631;51.962;5.974;2023-05-23T02:37:38;101704.84;;;14.15;100.00
59757;BME280;45631;51.962;5.974;2023-05-23T02:40:07;101712.56;;;14.18;100.00
59757;BME280;45631;51.962;5.974;2023-05-23T02:42:38;101710.00;;;14.17;100.00
59757;BME280;45631;51.962;5.974;2023-05-23T02:45:08;101715.41;;;14.15;100.00
59757;BME280;45631;51.962;5.974;2023-05-23T02:47:36;101720.69;;;14.15;100.00
59757;BME280;45631;51.962;5.974;2023-05-23T02:50:05;101720.81;;;14.14;100.00
59757;BME280;45631;51.962;5.974;2023-05-23T02:52:35;101721.97;;;14.10;100.00
59757;BME280;45631;51.962;5.974;2023-05-23T02:55:04;101716.69;;;14.10;100.00
59757;BME280;45631;51.962;5.974;2023-05-23T02:57:32;101716.75;;;14.08;100.00
59757;BME280;45631;51.962;5.974;2023-05-23T03:00:00;101716.75;;;14.08;100.00
59757;BME280;45631;51.962;5.974;2023-05-23T03:02:28;101716.13;;;14.05;100.00
59757;BME280;45631;51.962;5.974;2023-05-23T03:04:57;101714.66;;;14.13;100.00
59757;BME280;45631;51.962;5.974;2023-05-23T03:07:25;101712.00;;;14.13;100.00
59757;BME280;45631;51.962;5.974;2023-05-23T03:09:56;101712.13;;;14.12;100.00
59757;BME280;45631;51.962;5.974;2023-05-23T03:12:24;101710.06;;;14.02;100.00
59757;BME280;45631;51.962;5.974;2023-05-23T03:14:52;101712.81;;;14.01;100.00
59757;BME280;45631;51.962;5.974;2023-05-23T03:17:20;101710.28;;;13.99;100.00
59757;BME280;45631;51.962;5.974;2023-05-23T03:19:48;101721.25;;;13.93;100.00
59757;BME280;45631;51.962;5.974;2023-05-23T03:22:16;101730.69;;;13.97;100.00
59757;BME280;45631;51.962;5.974;2023-05-23T03:24:44;101729.28;;;13.92;100.00
59757;BME280;45631;51.962;5.974;2023-05-23T03:27:14;101725.03;;;13.89;100.00
59757;BME280;45631;51.962;5.974;2023-05-23T03:29:42;101728.25;;;13.94;100.00
59757;BME280;45631;51.962;5.974;2023-05-23T03:32:10;101734.47;;;13.93;100.00
59757;BME280;45631;51.962;5.974;2023-05-23T03:34:39;101726.16;;;13.99;100.00
59757;BME280;45631;51.962;5.974;2023-05-23T03:37:07;101726.75;;;13.90;100.00
59757;BME280;45631;51.962;5.974;2023-05-23T03:39:35;101726.81;;;13.76;100.00
59757;BME280;45631;51.962;5.974;2023-05-23T03:42:05;101733.19;;;13.86;100.00
59757;BME280;45631;51.962;5.974;2023-05-23T03:44:35;101737.13;;;13.93;100.00
59757;BME280;45631;51.962;5.974;2023-05-23T03:47:04;101733.50;;;13.81;100.00
59757;BME280;45631;51.962;5.974;2023-05-23T03:49:32;101732.84;;;13.78;100.00
59757;BME280;45631;51.962;5.974;2023-05-23T03:52:01;101736.97;;;13.82;100.00
59757;BME280;45631;51.962;5.974;2023-05-23T03:54:29;101732.44;;;13.84;100.00
59757;BME280;45631;51.962;5.974;2023-05-23T03:56:57;101739.34;;;13.86;100.00
59757;BME280;45631;51.962;5.974;2023-05-23T03:59:25;101735.56;;;13.76;100.00
59757;BME280;45631;51.962;5.974;2023-05-23T04:01:54;101742.56;;;13.77;100.00
59757;BME280;45631;51.962;5.974;2023-05-23T04:04:24;101737.06;;;13.80;100.00
59757;BME280;45631;51.962;5.974;2023-05-23T04:06:52;101750.75;;;13.87;100.00
59757;BME280;45631;51.962;5.974;2023-05-23T04:09:21;101745.16;;;13.92;100.00
59757;BME280;45631;51.962;5.974;2023-05-23T04:11:50;101754.44;;;13.84;100.00
59757;BME280;45631;51.962;5.974;2023-05-23T04:14:18;101760.38;;;13.88;100.00
59757;BME280;45631;51.962;5.974;2023-05-23T04:16:49;101750.34;;;13.93;100.00
59757;BME280;45631;51.962;5.974;2023-05-23T04:19:22;101746.19;;;13.89;100.00
59757;BME280;45631;51.962;5.974;2023-05-23T04:21:50;101750.75;;;13.87;100.00
59757;BME280;45631;51.962;5.974;2023-05-23T04:24:18;101763.03;;;13.88;100.00
59757;BME280;45631;51.962;5.974;2023-05-23T04:26:47;101765.16;;;13.96;100.00
59757;BME280;45631;51.962;5.974;2023-05-23T04:29:15;101755.34;;;13.98;100.00
59757;BME280;45631;51.962;5.974;2023-05-23T04:31:43;101758.63;;;14.01;100.00
59757;BME280;45631;51.962;5.974;2023-05-23T04:34:12;101759.59;;;14.00;100.00
59757;BME280;45631;51.962;5.974;2023-05-23T04:36:42;101767.53;;;14.00;100.00
59757;BME280;45631;51.962;5.974;2023-05-23T04:39:10;101774.59;;;14.00;100.00
59757;BME280;45631;51.962;5.974;2023-05-23T04:41:39;101783.03;;;13.92;100.00
59757;BME280;45631;51.962;5.974;2023-05-23T04:44:07;101779.84;;;13.87;100.00
59757;BME280;45631;51.962;5.974;2023-05-23T04:46:38;101783.06;;;13.78;100.00
59757;BME280;45631;51.962;5.974;2023-05-23T04:49:08;101781.19;;;13.80;100.00
59757;BME280;45631;51.962;5.974;2023-05-23T04:51:36;101787.88;;;13.85;100.00
59757;BME280;45631;51.962;5.974;2023-05-23T04:54:06;101788.91;;;13.83;100.00
59757;BME280;45631;51.962;5.974;2023-05-23T04:56:34;101791.75;;;13.80;100.00
59757;BME280;45631;51.962;5.974;2023-05-23T04:59:02;101796.84;;;13.83;100.00
59757;BME280;45631;51.962;5.974;2023-05-23T05:01:30;101805.81;;;13.80;100.00
59757;BME280;45631;51.962;5.974;2023-05-23T05:04:03;101813.28;;;13.74;100.00
59757;BME280;45631;51.962;5.974;2023-05-23T05:06:31;101812.91;;;13.80;100.00
59757;BME280;45631;51.962;5.974;2023-05-23T05:09:00;101818.38;;;13.77;100.00
59757;BME280;45631;51.962;5.974;2023-05-23T05:11:29;101823.66;;;13.77;100.00
59757;BME280;45631;51.962;5.974;2023-05-23T05:13:57;101827.34;;;13.74;100.00
59757;BME280;45631;51.962;5.974;2023-05-23T05:16:25;101823.13;;;13.72;100.00
59757;BME280;45631;51.962;5.974;2023-05-23T05:18:54;101831.53;;;13.64;100.00
59757;BME280;45631;51.962;5.974;2023-05-23T05:21:25;101831.81;;;13.45;100.00
59757;BME280;45631;51.962;5.974;2023-05-23T05:23:54;101838.59;;;13.49;100.00
59757;BME280;45631;51.962;5.974;2023-05-23T05:26:22;101846.16;;;13.41;100.00
59757;BME280;45631;51.962;5.974;2023-05-23T05:28:52;101848.03;;;13.39;100.00
59757;BME280;45631;51.962;5.974;2023-05-23T05:31:20;101847.88;;;13.42;100.00
59757;BME280;45631;51.962;5.974;2023-05-23T05:33:48;101848.47;;;13.31;100.00
59757;BME280;45631;51.962;5.974;2023-05-23T05:36:19;101850.44;;;13.27;100.00
59757;BME280;45631;51.962;5.974;2023-05-23T05:38:47;101855.72;;;13.27;100.00
59757;BME280;45631;51.962;5.974;2023-05-23T05:41:18;101861.22;;;13.24;100.00
59757;BME280;45631;51.962;5.974;2023-05-23T05:43:46;101865.91;;;13.19;100.00
59757;BME280;45631;51.962;5.974;2023-05-23T05:46:16;101861.94;;;13.12;100.00
59757;BME280;45631;51.962;5.974;2023-05-23T05:48:44;101863.09;;;13.22;100.00
59757;BME280;45631;51.962;5.974;2023-05-23T05:51:13;101869.28;;;13.07;100.00
59757;BME280;45631;51.962;5.974;2023-05-23T05:53:41;101873.25;;;13.14;100.00
59757;BME280;45631;51.962;5.974;2023-05-23T05:56:09;101867.88;;;13.15;100.00
59757;BME280;45631;51.962;5.974;2023-05-23T05:58:37;101876.47;;;13.19;100.00
59757;BME280;45631;51.962;5.974;2023-05-23T06:01:05;101882.06;;;13.14;100.00
59757;BME280;45631;51.962;5.974;2023-05-23T06:03:35;101882.22;;;13.11;100.00
59757;BME280;45631;51.962;5.974;2023-05-23T06:06:03;101879.84;;;13.07;100.00
59757;BME280;45631;51.962;5.974;2023-05-23T06:08:32;101878.25;;;13.04;100.00
59757;BME280;45631;51.962;5.974;2023-05-23T06:11:00;101886.59;;;12.96;100.00
59757;BME280;45631;51.962;5.974;2023-05-23T06:13:28;101892.47;;;13.01;100.00
59757;BME280;45631;51.962;5.974;2023-05-23T06:15:57;101898.78;;;12.99;100.00
59757;BME280;45631;51.962;5.974;2023-05-23T06:18:25;101900.88;;;13.08;100.00
59757;BME280;45631;51.962;5.974;2023-05-23T06:20:55;101902.78;;;13.06;100.00
59757;BME280;45631;51.962;5.974;2023-05-23T06:23:23;101891.75;;;13.14;100.00
59757;BME280;45631;51.962;5.974;2023-05-23T06:25:51;101896.91;;;13.01;100.00
59757;BME280;45631;51.962;5.974;2023-05-23T06:28:19;101894.19;;;13.02;100.00
59757;BME280;45631;51.962;5.974;2023-05-23T06:30:48;101897.75;;;13.01;100.00
59757;BME280;45631;51.962;5.974;2023-05-23T06:33:16;101911.25;;;12.97;100.00
59757;BME280;45631;51.962;5.974;2023-05-23T06:35:44;101912.03;;;12.83;100.00
59757;BME280;45631;51.962;5.974;2023-05-23T06:38:13;101915.81;;;12.79;100.00
59757;BME280;45631;51.962;5.974;2023-05-23T06:40:43;101919.28;;;12.79;100.00
59757;BME280;45631;51.962;5.974;2023-05-23T06:43:12;101918.19;;;12.67;100.00
59757;BME280;45631;51.962;5.974;2023-05-23T06:45:40;101922.44;;;12.70;100.00
59757;BME280;45631;51.962;5.974;2023-05-23T06:48:08;101924.75;;;12.76;100.00
59757;BME280;45631;51.962;5.974;2023-05-23T06:50:37;101933.69;;;12.74;100.00
59757;BME280;45631;51.962;5.974;2023-05-23T06:53:06;101938.88;;;12.75;100.00
59757;BME280;45631;51.962;5.974;2023-05-23T06:55:38;101941.75;;;12.71;100.00
59757;BME280;45631;51.962;5.974;2023-05-23T06:58:06;101947.53;;;12.77;100.00
59757;BME280;45631;51.962;5.974;2023-05-23T07:00:34;101947.72;;;12.74;100.00
59757;BME280;45631;51.962;5.974;2023-05-23T07:03:05;101952.22;;;12.88;100.00
59757;BME280;45631;51.962;5.974;2023-05-23T07:05:34;101959.97;;;12.91;100.00
59757;BME280;45631;51.962;5.974;2023-05-23T07:08:06;101956.22;;;12.95;100.00
59757;BME280;45631;51.962;5.974;2023-05-23T07:10:38;101959.25;;;13.04;100.00
59757;BME280;45631;51.962;5.974;2023-05-23T07:13:07;101950.72;;;13.14;100.00
59757;BME280;45631;51.962;5.974;2023-05-23T07:15:36;101957.69;;;13.15;100.00
59757;BME280;45631;51.962;5.974;2023-05-23T07:18:04;101960.66;;;13.25;100.00
59757;BME280;45631;51.962;5.974;2023-05-23T07:20:32;101957.13;;;13.41;100.00
59757;BME280;45631;51.962;5.974;2023-05-23T07:23:01;101961.09;;;13.48;100.00
59757;BME280;45631;51.962;5.974;2023-05-23T07:25:29;101958.84;;;13.56;100.00
59757;BME280;45631;51.962;5.974;2023-05-23T07:27:58;101963.28;;;13.70;100.00
59757;BME280;45631;51.962;5.974;2023-05-23T07:30:26;101973.78;;;13.86;100.00
59757;BME280;45631;51.962;5.974;2023-05-23T07:32:58;101966.78;;;13.85;100.00
59757;BME280;45631;51.962;5.974;2023-05-23T07:35:26;101963.50;;;13.96;100.00
59757;BME280;45631;51.962;5.974;2023-05-23T07:37:54;101969.06;;;14.06;100.00
59757;BME280;45631;51.962;5.974;2023-05-23T07:40:23;101975.31;;;14.05;100.00
59757;BME280;45631;51.962;5.974;2023-05-23T07:42:51;101978.59;;;14.08;100.00
59757;BME280;45631;51.962;5.974;2023-05-23T07:45:22;101982.84;;;14.11;100.00
59757;BME280;45631;51.962;5.974;2023-05-23T07:47:51;101989.84;;;14.12;100.00
59757;BME280;45631;51.962;5.974;2023-05-23T07:50:19;101981.16;;;14.24;100.00
59757;BME280;45631;51.962;5.974;2023-05-23T07:52:47;101994.94;;;14.29;100.00
59757;BME280;45631;51.962;5.974;2023-05-23T07:55:17;101998.91;;;14.36;100.00
59757;BME280;45631;51.962;5.974;2023-05-23T07:57:45;102006.28;;;14.31;100.00
59757;BME280;45631;51.962;5.974;2023-05-23T08:00:14;101997.34;;;14.61;100.00
59757;BME280;45631;51.962;5.974;2023-05-23T08:02:43;101997.94;;;14.94;100.00
59757;BME280;45631;51.962;5.974;2023-05-23T08:05:14;101990.69;;;15.10;100.00
59757;BME280;45631;51.962;5.974;2023-05-23T08:07:42;101985.81;;;15.17;100.00
59757;BME280;45631;51.962;5.974;2023-05-23T08:10:10;101989.41;;;15.03;100.00
59757;BME280;45631;51.962;5.974;2023-05-23T08:12:38;102001.81;;;15.02;100.00
59757;BME280;45631;51.962;5.974;2023-05-23T08:15:07;102007.84;;;15.04;100.00
59757;BME280;45631;51.962;5.974;2023-05-23T08:17:36;102005.19;;;15.04;100.00
59757;BME280;45631;51.962;5.974;2023-05-23T08:20:06;102015.66;;;14.93;100.00
59757;BME280;45631;51.962;5.974;2023-05-23T08:22:36;102012.66;;;14.70;100.00
59757;BME280;45631;51.962;5.974;2023-05-23T08:25:05;102025.16;;;14.68;100.00
59757;BME280;45631;51.962;5.974;2023-05-23T08:27:33;102020.06;;;14.51;100.00
59757;BME280;45631;51.962;5.974;2023-05-23T08:30:03;102031.78;;;14.76;100.00
59757;BME280;45631;51.962;5.974;2023-05-23T08:32:32;102035.00;;;14.52;100.00
59757;BME280;45631;51.962;5.974;2023-05-23T08:35:00;102031.59;;;14.50;100.00
59757;BME280;45631;51.962;5.974;2023-05-23T08:37:30;102041.53;;;14.75;100.00
59757;BME280;45631;51.962;5.974;2023-05-23T08:39:58;102036.94;;;14.92;100.00
59757;BME280;45631;51.962;5.974;2023-05-23T08:42:27;102046.75;;;15.17;100.00
59757;BME280;45631;51.962;5.974;2023-05-23T08:44:55;102035.56;;;15.26;100.00
59757;BME280;45631;51.962;5.974;2023-05-23T08:47:23;102034.63;;;15.27;100.00
59757;BME280;45631;51.962;5.974;2023-05-23T08:49:54;102042.72;;;15.51;100.00
59757;BME280;45631;51.962;5.974;2023-05-23T08:52:24;102041.81;;;15.65;100.00
59757;BME280;45631;51.962;5.974;2023-05-23T08:54:56;102047.16;;;15.91;100.00
59757;BME280;45631;51.962;5.974;2023-05-23T08:57:24;102042.28;;;16.11;100.00
59757;BME280;45631;51.962;5.974;2023-05-23T08:59:57;102048.00;;;16.17;100.00
59757;BME280;45631;51.962;5.974;2023-05-23T09:02:26;102040.00;;;16.30;100.00
59757;BME280;45631;51.962;5.974;2023-05-23T09:04:54;102039.78;;;16.46;100.00
59757;BME280;45631;51.962;5.974;2023-05-23T09:07:27;102042.38;;;16.72;100.00
59757;BME280;45631;51.962;5.974;2023-05-23T09:09:57;102047.63;;;16.61;100.00
59757;BME280;45631;51.962;5.974;2023-05-23T09:12:25;102050.88;;;16.64;100.00
59757;BME280;45631;51.962;5.974;2023-05-23T09:14:53;102049.63;;;16.57;100.00
59757;BME280;45631;51.962;5.974;2023-05-23T09:17:22;102051.78;;;16.52;100.00
59757;BME280;45631;51.962;5.974;2023-05-23T09:19:50;102047.41;;;16.51;100.00
59757;BME280;45631;51.962;5.974;2023-05-23T09:22:23;102062.84;;;16.46;100.00
59757;BME280;45631;51.962;5.974;2023-05-23T09:24:52;102061.16;;;16.19;100.00
59757;BME280;45631;51.962;5.974;2023-05-23T09:27:22;102063.16;;;16.15;100.00
59757;BME280;45631;51.962;5.974;2023-05-23T09:29:50;102059.88;;;16.25;100.00
59757;BME280;45631;51.962;5.974;2023-05-23T09:32:20;102069.28;;;16.54;100.00
59757;BME280;45631;51.962;5.974;2023-05-23T09:34:54;102064.09;;;16.40;100.00
59757;BME280;45631;51.962;5.974;2023-05-23T09:37:28;102066.00;;;16.51;100.00
59757;BME280;45631;51.962;5.974;2023-05-23T09:39:58;102071.53;;;16.61;100.00
59757;BME280;45631;51.962;5.974;2023-05-23T09:42:32;102075.53;;;16.66;100.00
59757;BME280;45631;51.962;5.974;2023-05-23T09:45:03;102074.97;;;16.74;100.00
59757;BME280;45631;51.962;5.974;2023-05-23T09:47:34;102079.50;;;16.85;100.00
59757;BME280;45631;51.962;5.974;2023-05-23T09:50:03;102076.84;;;16.85;100.00
59757;BME280;45631;51.962;5.974;2023-05-23T09:52:35;102076.97;;;17.20;100.00
59757;BME280;45631;51.962;5.974;2023-05-23T09:55:05;102071.88;;;17.42;100.00
59757;BME280;45631;51.962;5.974;2023-05-23T09:57:38;102071.88;;;17.42;100.00
59757;BME280;45631;51.962;5.974;2023-05-23T10:00:08;102081.56;;;17.43;100.00
59757;BME280;45631;51.962;5.974;2023-05-23T10:03:00;102073.56;;;17.43;100.00
59757;BME280;45631;51.962;5.974;2023-05-23T10:05:35;102074.22;;;17.22;100.00
59757;BME280;45631;51.962;5.974;2023-05-23T10:08:08;102063.59;;;17.57;100.00
59757;BME280;45631;51.962;5.974;2023-05-23T10:13:49;102066.97;;;17.95;96.85
59757;BME280;45631;51.962;5.974;2023-05-23T10:16:23;102067.59;;;18.33;100.00
59757;BME280;45631;51.962;5.974;2023-05-23T10:18:56;102061.31;;;18.34;94.77
59757;BME280;45631;51.962;5.974;2023-05-23T10:21:28;102064.06;;;18.55;98.73
59757;BME280;45631;51.962;5.974;2023-05-23T10:23:59;102057.50;;;18.82;96.81
59757;BME280;45631;51.962;5.974;2023-05-23T10:26:28;102066.25;;;18.72;88.64
59757;BME280;45631;51.962;5.974;2023-05-23T10:28:57;102070.38;;;18.54;87.34
59757;BME280;45631;51.962;5.974;2023-05-23T10:31:27;102065.50;;;18.70;87.64
59757;BME280;45631;51.962;5.974;2023-05-23T10:34:04;102074.72;;;18.89;86.79
59757;BME280;45631;51.962;5.974;2023-05-23T10:36:42;102063.22;;;19.21;84.38
59757;BME280;45631;51.962;5.974;2023-05-23T10:39:18;102066.81;;;19.52;80.00
59757;BME280;45631;51.962;5.974;2023-05-23T10:41:53;102056.75;;;19.56;77.89
59757;BME280;45631;51.962;5.974;2023-05-23T10:44:26;102051.53;;;19.75;78.50
59757;BME280;45631;51.962;5.974;2023-05-23T10:46:56;102058.84;;;19.73;76.04
59757;BME280;45631;51.962;5.974;2023-05-23T10:49:36;102059.13;;;20.22;76.53
59757;BME280;45631;51.962;5.974;2023-05-23T10:52:06;102059.09;;;20.13;69.56
59757;BME280;45631;51.962;5.974;2023-05-23T10:54:41;102063.25;;;20.05;70.95
59757;BME280;45631;51.962;5.974;2023-05-23T10:57:10;102058.72;;;20.27;72.27
59757;BME280;45631;51.962;5.974;2023-05-23T10:59:39;102061.50;;;19.95;66.82
59757;BME280;45631;51.962;5.974;2023-05-23T11:02:12;102058.41;;;20.51;73.18
59757;BME280;45631;51.962;5.974;2023-05-23T11:04:41;102071.31;;;20.46;64.98
59757;BME280;45631;51.962;5.974;2023-05-23T11:07:29;102063.81;;;20.71;65.22
59757;BME280;45631;51.962;5.974;2023-05-23T11:10:07;102066.09;;;20.85;65.68
59757;BME280;45631;51.962;5.974;2023-05-23T11:12:37;102062.03;;;20.91;66.05
59757;BME280;45631;51.962;5.974;2023-05-23T11:15:28;102051.63;;;21.07;61.60
59757;BME280;45631;51.962;5.974;2023-05-23T11:18:08;102060.50;;;21.18;62.59
59757;BME280;45631;51.962;5.974;2023-05-23T11:20:37;102057.84;;;21.57;57.91
59757;BME280;45631;51.962;5.974;2023-05-23T11:23:07;102055.69;;;21.51;59.31
59757;BME280;45631;51.962;5.974;2023-05-23T11:25:40;102057.84;;;21.27;58.76
59757;BME280;45631;51.962;5.974;2023-05-23T11:28:12;102058.38;;;21.21;58.61
59757;BME280;45631;51.962;5.974;2023-05-23T11:30:41;102055.72;;;21.21;59.06
59757;BME280;45631;51.962;5.974;2023-05-23T11:33:11;102061.34;;;21.08;59.82
59757;BME280;45631;51.962;5.974;2023-05-23T11:35:41;102057.94;;;21.06;59.93
59757;BME280;45631;51.962;5.974;2023-05-23T11:38:10;102061.88;;;21.81;61.99
59757;BME280;45631;51.962;5.974;2023-05-23T11:40:39;102067.13;;;22.10;58.42
59757;BME280;45631;51.962;5.974;2023-05-23T11:43:09;102066.53;;;21.88;54.49
59757;BME280;45631;51.962;5.974;2023-05-23T11:45:38;102063.81;;;21.98;55.91
59757;BME280;45631;51.962;5.974;2023-05-23T11:48:09;102078.94;;;22.27;57.40
59757;BME280;45631;51.962;5.974;2023-05-23T11:50:46;102070.44;;;21.94;53.80
59757;BME280;45631;51.962;5.974;2023-05-23T11:53:16;102083.41;;;21.99;56.45
59757;BME280;45631;51.962;5.974;2023-05-23T11:55:50;102067.56;;;21.58;55.53
59757;BME280;45631;51.962;5.974;2023-05-23T11:58:20;102068.69;;;21.55;56.84
59757;BME280;45631;51.962;5.974;2023-05-23T12:00:49;102076.13;;;21.22;56.65
59757;BME280;45631;51.962;5.974;2023-05-23T12:03:22;102082.97;;;20.76;58.09
59757;BME280;45631;51.962;5.974;2023-05-23T12:05:50;102078.38;;;20.98;55.01
59757;BME280;45631;51.962;5.974;2023-05-23T12:08:19;102076.28;;;20.60;58.01
59757;BME280;45631;51.962;5.974;2023-05-23T12:10:51;102082.28;;;20.74;58.28
59757;BME280;45631;51.962;5.974;2023-05-23T12:13:23;102084.53;;;20.79;56.73
59757;BME280;45631;51.962;5.974;2023-05-23T12:15:53;102079.75;;;20.41;58.38
59757;BME280;45631;51.962;5.974;2023-05-23T12:18:27;102067.63;;;20.37;59.09
59757;BME280;45631;51.962;5.974;2023-05-23T12:20:58;102084.00;;;19.92;60.40
59757;BME280;45631;51.962;5.974;2023-05-23T12:23:27;102083.66;;;20.06;57.76
59757;BME280;45631;51.962;5.974;2023-05-23T12:25:58;102086.06;;;20.40;58.51
59757;BME280;45631;51.962;5.974;2023-05-23T12:28:34;102084.00;;;20.23;57.63
59757;BME280;45631;51.962;5.974;2023-05-23T12:31:10;102089.06;;;19.95;57.49
59757;BME280;45631;51.962;5.974;2023-05-23T12:33:41;102089.75;;;20.18;60.93
59757;BME280;45631;51.962;5.974;2023-05-23T12:40:34;102098.69;;;20.69;55.04
59757;BME280;45631;51.962;5.974;2023-05-23T12:43:08;102097.66;;;21.21;53.60
59757;BME280;45631;51.962;5.974;2023-05-23T12:45:36;102097.38;;;20.94;54.15
59757;BME280;45631;51.962;5.974;2023-05-23T12:48:05;102098.16;;;20.75;54.78
59757;BME280;45631;51.962;5.974;2023-05-23T12:50:36;102104.75;;;20.71;56.95
59757;BME280;45631;51.962;5.974;2023-05-23T12:53:05;102108.66;;;20.67;56.30
59757;BME280;45631;51.962;5.974;2023-05-23T12:55:35;102109.03;;;20.53;54.12
59757;BME280;45631;51.962;5.974;2023-05-23T12:58:04;102103.88;;;20.30;56.24
59757;BME280;45631;51.962;5.974;2023-05-23T13:00:33;102106.66;;;20.29;56.46
59757;BME280;45631;51.962;5.974;2023-05-23T13:03:01;102101.38;;;19.86;55.60
59757;BME280;45631;51.962;5.974;2023-05-23T13:05:37;102102.22;;;19.87;54.95